createdAt,value
2023-05-01T00:01:15.597Z,99.90
2023-05-01T00:03:43.687Z,99.90
2023-05-01T00:06:11.918Z,99.90
2023-05-01T00:08:39.904Z,99.90
2023-05-01T00:11:11.465Z,99.90
2023-05-01T00:13:39.603Z,99.90
2023-05-01T00:16:10.207Z,99.90
2023-05-01T00:18:38.258Z,99.90
2023-05-01T00:21:06.638Z,99.90
2023-05-01T00:23:34.580Z,99.90
2023-05-01T00:26:02.654Z,99.90
2023-05-01T00:28:32.644Z,99.90
2023-05-01T00:31:00.584Z,99.90
2023-05-01T00:33:28.492Z,99.90
2023-05-01T00:35:56.866Z,99.90
2023-05-01T00:38:25.135Z,99.90
2023-05-01T00:40:53.062Z,99.90
2023-05-01T00:43:20.998Z,99.90
2023-05-01T00:45:50.447Z,99.90
2023-05-01T00:48:18.498Z,99.90
2023-05-01T00:50:47.279Z,99.90
2023-05-01T00:53:15.520Z,99.90
2023-05-01T00:55:43.960Z,99.90
2023-05-01T00:58:13.134Z,99.90
2023-05-01T01:00:41.485Z,99.90
2023-05-01T01:03:11.627Z,99.90
2023-05-01T01:05:43.926Z,99.90
2023-05-01T01:08:17.837Z,99.90
2023-05-01T01:10:54.523Z,99.90
2023-05-01T01:13:31.146Z,99.90
2023-05-01T01:16:10.037Z,99.90
2023-05-01T01:18:44.800Z,99.90
2023-05-01T01:21:34.087Z,99.90
2023-05-01T01:24:27.788Z,99.90
2023-05-01T01:27:19.015Z,99.90
2023-05-01T01:30:17.943Z,99.90
2023-05-01T01:33:04.879Z,99.90
2023-05-01T01:35:36.670Z,99.90
2023-05-01T01:38:07.859Z,99.90
2023-05-01T01:40:40.603Z,99.90
2023-05-01T01:43:11.362Z,99.90
2023-05-01T01:45:43.070Z,99.90
2023-05-01T01:48:14.302Z,99.90
2023-05-01T01:50:46.584Z,99.90
2023-05-01T01:53:18.785Z,99.90
2023-05-01T01:55:49.035Z,99.90
2023-05-01T01:58:18.251Z,99.90
2023-05-01T02:00:46.750Z,99.90
2023-05-01T02:03:15.740Z,99.90
2023-05-01T02:05:45.845Z,99.90
2023-05-01T02:08:15.574Z,99.90
2023-05-01T02:10:44.804Z,99.90
2023-05-01T02:13:14.575Z,99.90
2023-05-01T02:15:43.340Z,99.90
2023-05-01T02:18:12.207Z,99.90
2023-05-01T02:20:42.080Z,99.90
2023-05-01T02:23:11.857Z,99.90
2023-05-01T02:25:41.126Z,99.90
2023-05-01T02:28:13.500Z,99.90
2023-05-01T02:30:41.625Z,99.90
2023-05-01T02:33:09.923Z,99.90
2023-05-01T02:35:41.698Z,99.90
2023-05-01T02:38:11.147Z,99.90
2023-05-01T02:40:40.384Z,99.90
2023-05-01T02:43:12.068Z,99.90
2023-05-01T02:45:42.126Z,99.90
2023-05-01T02:48:12.382Z,99.90
2023-05-01T02:50:42.099Z,99.90
2023-05-01T02:53:13.067Z,99.90
2023-05-01T02:55:42.658Z,99.90
2023-05-01T02:58:16.362Z,99.90
2023-05-01T03:00:44.832Z,99.90
2023-05-01T03:03:13.036Z,99.90
2023-05-01T03:05:41.610Z,99.90
2023-05-01T03:08:11.561Z,99.90
2023-05-01T03:10:42.638Z,99.90
2023-05-01T03:13:10.672Z,99.90
2023-05-01T03:15:39.003Z,99.90
2023-05-01T03:18:07.198Z,99.90
2023-05-01T03:20:35.219Z,99.90
2023-05-01T03:23:03.343Z,99.90
2023-05-01T03:25:32.864Z,99.90
2023-05-01T03:28:00.774Z,99.90
2023-05-01T03:30:28.675Z,99.90
2023-05-01T03:32:56.683Z,99.90
2023-05-01T03:37:52.518Z,99.90
2023-05-01T03:40:20.584Z,99.90
2023-05-01T03:42:49.868Z,99.90
2023-05-01T03:45:17.849Z,99.90
2023-05-01T03:47:45.926Z,99.90
2023-05-01T03:50:14.557Z,99.90
2023-05-01T03:52:42.560Z,99.90
2023-05-01T03:55:10.841Z,99.90
2023-05-01T03:57:38.789Z,99.90
2023-05-01T04:00:10.824Z,99.90
2023-05-01T04:02:38.895Z,99.90
2023-05-01T04:05:07.656Z,99.90
2023-05-01T04:07:35.739Z,99.90
2023-05-01T04:10:04.605Z,99.90
2023-05-01T04:12:32.550Z,99.90
2023-05-01T04:15:00.481Z,99.90
2023-05-01T04:17:30.078Z,99.90
2023-05-01T04:19:58.233Z,99.90
2023-05-01T04:22:26.706Z,99.90
2023-05-01T04:24:54.645Z,99.90
2023-05-01T04:27:22.598Z,99.90
2023-05-01T04:29:50.527Z,99.90
2023-05-01T04:32:18.654Z,99.90
2023-05-01T04:34:47.939Z,99.90
2023-05-01T04:37:17.901Z,99.90
2023-05-01T04:39:45.907Z,99.90
2023-05-01T04:42:13.838Z,99.90
2023-05-01T04:45:04.122Z,99.90
2023-05-01T04:47:32.159Z,99.90
2023-05-01T04:50:01.464Z,99.90
2023-05-01T04:52:29.418Z,99.90
2023-05-01T04:54:57.806Z,99.90
2023-05-01T04:57:25.877Z,99.90
2023-05-01T04:59:53.970Z,99.90
2023-05-01T05:02:22.065Z,99.90
2023-05-01T05:04:50.095Z,99.90
2023-05-01T05:07:19.358Z,99.90
2023-05-01T05:09:47.304Z,99.90
2023-05-01T05:12:15.652Z,99.90
2023-05-01T05:14:51.518Z,99.90
2023-05-01T05:17:19.452Z,99.90
2023-05-01T05:19:47.610Z,99.90
2023-05-01T05:22:15.685Z,99.90
2023-05-01T05:24:45.055Z,99.90
2023-05-01T05:27:12.978Z,99.90
2023-05-01T05:29:40.895Z,99.90
2023-05-01T05:32:08.861Z,99.90
2023-05-01T05:34:36.949Z,99.90
2023-05-01T05:37:04.874Z,99.90
2023-05-01T05:39:32.813Z,99.90
2023-05-01T05:42:03.600Z,99.90
2023-05-01T05:44:33.049Z,99.90
2023-05-01T05:47:01.080Z,99.90
2023-05-01T05:49:29.125Z,99.90
2023-05-01T05:51:57.142Z,99.90
2023-05-01T05:54:25.089Z,99.90
2023-05-01T05:56:53.033Z,99.90
2023-05-01T05:59:22.350Z,99.90
2023-05-01T06:01:50.327Z,99.90
2023-05-01T06:04:18.243Z,99.90
2023-05-01T06:06:46.272Z,99.90
2023-05-01T06:09:14.727Z,99.90
2023-05-01T06:11:42.660Z,99.90
2023-05-01T06:14:10.733Z,99.90
2023-05-01T06:16:40.236Z,99.90
2023-05-01T06:19:10.185Z,99.90
2023-05-01T06:21:38.150Z,99.90
2023-05-01T06:24:06.660Z,99.90
2023-05-01T06:26:34.627Z,99.90
2023-05-01T06:29:02.564Z,99.90
2023-05-01T06:31:30.613Z,99.90
2023-05-01T06:33:59.942Z,99.90
2023-05-01T06:36:27.987Z,99.90
2023-05-01T06:38:55.897Z,99.90
2023-05-01T06:41:25.824Z,99.90
2023-05-01T06:43:53.850Z,99.90
2023-05-01T06:46:21.856Z,99.90
2023-05-01T06:48:49.896Z,99.90
2023-05-01T06:51:19.217Z,99.90
2023-05-01T06:53:47.231Z,99.90
2023-05-01T06:56:15.316Z,99.90
2023-05-01T06:58:43.238Z,99.90
2023-05-01T07:01:11.385Z,99.90
2023-05-01T07:03:39.585Z,99.90
2023-05-01T07:06:07.580Z,99.90
2023-05-01T07:08:36.956Z,99.90
2023-05-01T07:11:04.955Z,99.90
2023-05-01T07:13:32.925Z,99.90
2023-05-01T07:16:02.439Z,99.90
2023-05-01T07:18:30.471Z,99.90
2023-05-01T07:20:58.483Z,99.90
2023-05-01T07:23:26.635Z,99.90
2023-05-01T07:25:55.987Z,99.90
2023-05-01T07:28:23.940Z,99.90
2023-05-01T07:30:51.950Z,99.90
2023-05-01T07:33:20.031Z,99.90
2023-05-01T07:35:48.049Z,99.90
2023-05-01T07:38:17.224Z,99.80
2023-05-01T07:40:45.252Z,92.90
2023-05-01T07:43:14.647Z,92.60
2023-05-01T07:45:43.263Z,92.30
2023-05-01T07:48:11.448Z,91.10
2023-05-01T07:50:40.673Z,91.00
2023-05-01T07:53:08.696Z,91.00
2023-05-01T07:55:37.843Z,91.00
2023-05-01T07:58:06.384Z,90.70
2023-05-01T08:00:36.526Z,89.50
2023-05-01T08:03:04.629Z,85.70
2023-05-01T08:05:32.694Z,82.20
2023-05-01T08:08:00.642Z,75.60
2023-05-01T08:10:28.762Z,75.00
2023-05-01T08:12:56.783Z,74.50
2023-05-01T08:15:25.396Z,67.80
2023-05-01T08:17:54.723Z,62.80
2023-05-01T08:20:22.983Z,64.50
2023-05-01T08:22:51.236Z,60.80
2023-05-01T08:25:19.242Z,63.00
2023-05-01T08:27:47.286Z,61.70
2023-05-01T08:30:15.302Z,61.60
2023-05-01T08:32:43.313Z,61.50
2023-05-01T08:35:12.696Z,60.40
2023-05-01T08:37:40.718Z,61.00
2023-05-01T08:40:10.425Z,61.50
2023-05-01T08:42:39.394Z,58.80
2023-05-01T08:45:09.445Z,55.50
2023-05-01T08:47:38.415Z,52.20
2023-05-01T08:50:12.745Z,50.10
2023-05-01T08:52:43.192Z,43.60
2023-05-01T08:55:13.950Z,39.60
2023-05-01T08:57:46.132Z,33.80
2023-05-01T09:00:19.645Z,35.20
2023-05-01T09:02:50.159Z,38.00
2023-05-01T09:05:21.199Z,37.00
2023-05-01T09:07:49.650Z,36.00
2023-05-01T09:10:19.082Z,34.00
2023-05-01T09:12:54.732Z,32.50
2023-05-01T09:15:23.326Z,25.70
2023-05-01T09:17:51.858Z,26.90
2023-05-01T09:20:21.940Z,25.00
2023-05-01T09:22:51.153Z,23.80
2023-05-01T09:25:19.389Z,24.40
2023-05-01T09:27:47.380Z,22.30
2023-05-01T09:30:31.468Z,23.70
2023-05-01T09:33:09.543Z,21.80
2023-05-01T09:35:52.911Z,15.30
2023-05-01T09:38:22.815Z,17.20
2023-05-01T09:40:51.668Z,16.20
2023-05-01T09:43:27.654Z,17.20
2023-05-01T09:46:04.973Z,19.30
2023-05-01T09:48:35.264Z,16.40
2023-05-01T09:51:21.857Z,13.40
2023-05-01T09:53:50.053Z,12.70
2023-05-01T09:56:18.403Z,11.90
2023-05-01T09:58:46.598Z,12.60
2023-05-01T10:01:15.203Z,11.80
2023-05-01T10:03:45.764Z,13.30
2023-05-01T10:06:28.952Z,14.10
2023-05-01T10:08:57.045Z,15.00
2023-05-01T10:11:26.618Z,15.60
2023-05-01T10:14:08.665Z,14.50
2023-05-01T10:16:38.360Z,15.80
2023-05-01T10:19:07.695Z,17.10
2023-05-01T10:21:37.289Z,17.70
2023-05-01T10:24:06.110Z,16.50
2023-05-01T10:26:34.889Z,17.90
2023-05-01T10:29:03.604Z,18.50
2023-05-01T10:31:32.946Z,18.50
2023-05-01T10:34:01.838Z,20.10
2023-05-01T10:36:35.166Z,18.60
2023-05-01T10:39:04.682Z,21.30
2023-05-01T10:42:10.823Z,22.10
2023-05-01T10:44:51.267Z,24.80
2023-05-01T10:47:48.870Z,23.30
2023-05-01T10:50:17.688Z,22.40
2023-05-01T10:53:19.644Z,24.50
2023-05-01T10:55:50.226Z,25.20
2023-05-01T10:58:56.334Z,24.40
2023-05-01T11:01:32.031Z,23.00
2023-05-01T11:04:01.783Z,25.30
2023-05-01T11:06:30.094Z,25.00
2023-05-01T11:08:58.702Z,25.40
2023-05-01T11:11:52.836Z,26.00
2023-05-01T11:14:20.794Z,25.70
2023-05-01T11:16:49.481Z,26.10
2023-05-01T11:19:47.577Z,25.10
2023-05-01T11:22:16.952Z,24.10
2023-05-01T11:24:45.016Z,24.30
2023-05-01T11:27:18.185Z,22.80
2023-05-01T11:29:49.753Z,22.40
2023-05-01T11:32:20.809Z,22.80
2023-05-01T11:34:51.148Z,24.30
2023-05-01T11:37:19.357Z,21.80
2023-05-01T11:39:52.111Z,21.40
2023-05-01T11:42:23.717Z,21.30
2023-05-01T11:45:11.893Z,20.50
2023-05-01T11:47:40.557Z,19.60
2023-05-01T11:50:10.304Z,18.50
2023-05-01T11:52:46.436Z,18.80
2023-05-01T11:55:14.450Z,17.80
2023-05-01T11:57:54.111Z,18.10
2023-05-01T12:00:29.563Z,19.40
2023-05-01T12:02:58.981Z,20.10
2023-05-01T12:05:28.338Z,19.10
2023-05-01T12:08:11.258Z,21.20
2023-05-01T12:10:41.031Z,21.10
2023-05-01T12:13:12.168Z,21.80
2023-05-01T12:15:42.162Z,22.00
2023-05-01T12:18:10.330Z,22.30
2023-05-01T12:20:40.370Z,22.90
2023-05-01T12:23:10.761Z,24.00
2023-05-01T12:25:39.546Z,27.30
2023-05-01T12:28:14.592Z,31.40
2023-05-01T12:30:44.908Z,35.00
2023-05-01T12:33:14.287Z,42.60
2023-05-01T12:35:45.304Z,50.10
2023-05-01T12:38:17.470Z,60.20
2023-05-01T12:40:56.634Z,66.80
2023-05-01T12:43:33.502Z,72.80
2023-05-01T12:46:03.053Z,77.40
2023-05-01T12:48:31.635Z,81.70
2023-05-01T12:51:01.099Z,84.00
2023-05-01T12:53:30.360Z,91.20
2023-05-01T12:55:59.553Z,91.50
2023-05-01T12:58:37.083Z,92.70
2023-05-01T13:01:06.274Z,91.90
2023-05-01T13:03:38.318Z,92.50
2023-05-01T13:06:08.445Z,93.80
2023-05-01T13:08:38.448Z,94.00
2023-05-01T13:11:13.031Z,94.20
2023-05-01T13:13:43.773Z,92.60
2023-05-01T13:16:13.403Z,87.70
2023-05-01T13:18:45.832Z,86.00
2023-05-01T13:21:16.795Z,86.70
2023-05-01T13:23:53.881Z,87.30
2023-05-01T13:26:28.244Z,79.60
2023-05-01T13:28:58.652Z,80.80
2023-05-01T13:31:27.626Z,76.80
2023-05-01T13:33:58.272Z,81.50
2023-05-01T13:36:27.467Z,84.20
2023-05-01T13:38:57.545Z,78.90
2023-05-01T13:41:27.268Z,77.80
2023-05-01T13:43:57.705Z,75.30
2023-05-01T13:46:27.364Z,66.90
2023-05-01T13:48:56.224Z,64.70
2023-05-01T13:51:25.653Z,61.80
2023-05-01T13:53:54.505Z,60.60
2023-05-01T13:56:22.821Z,61.20
2023-05-01T13:58:51.107Z,57.00
2023-05-01T14:01:22.512Z,60.50
2023-05-01T14:03:51.514Z,57.30
2023-05-01T14:06:20.792Z,59.30
2023-05-01T14:08:51.289Z,64.70
2023-05-01T14:11:20.096Z,64.50
2023-05-01T14:13:49.591Z,61.40
2023-05-01T14:16:25.766Z,69.00
2023-05-01T14:18:56.900Z,70.90
2023-05-01T14:21:27.916Z,74.60
2023-05-01T14:23:58.102Z,80.40
2023-05-01T14:26:26.252Z,77.90
2023-05-01T14:28:54.601Z,75.60
2023-05-01T14:31:29.450Z,77.20
2023-05-01T14:33:58.901Z,78.40
2023-05-01T14:36:28.364Z,80.10
2023-05-01T14:38:57.743Z,85.30
2023-05-01T14:41:25.773Z,90.20
2023-05-01T14:43:54.199Z,91.70
2023-05-01T14:46:29.863Z,92.00
2023-05-01T14:48:58.533Z,92.10
2023-05-01T14:51:27.282Z,90.80
2023-05-01T14:53:56.067Z,90.70
2023-05-01T14:56:24.065Z,91.80
2023-05-01T14:58:52.105Z,92.10
2023-05-01T15:01:20.680Z,91.90
2023-05-01T15:03:50.141Z,92.40
2023-05-01T15:06:18.245Z,92.70
2023-05-01T15:08:46.782Z,92.90
2023-05-01T15:11:15.262Z,92.90
2023-05-01T15:13:44.276Z,92.20
2023-05-01T15:16:12.353Z,91.80
2023-05-01T15:18:40.657Z,90.80
2023-05-01T15:21:09.998Z,90.20
2023-05-01T15:23:38.078Z,89.60
2023-05-01T15:26:06.229Z,90.20
2023-05-01T15:28:34.183Z,91.80
2023-05-01T15:31:06.004Z,90.40
2023-05-01T15:33:34.077Z,90.80
2023-05-01T15:36:02.281Z,92.40
2023-05-01T15:38:31.581Z,94.00
2023-05-01T15:40:59.537Z,95.00
2023-05-01T15:43:27.706Z,94.00
2023-05-01T15:45:58.969Z,93.60
2023-05-01T15:48:27.062Z,94.30
2023-05-01T15:50:55.112Z,97.00
2023-05-01T15:53:24.337Z,99.90
2023-05-01T15:55:57.468Z,99.90
2023-05-01T15:58:25.785Z,99.90
2023-05-01T16:00:53.756Z,99.90
2023-05-01T16:03:22.042Z,99.90
2023-05-01T16:05:50.093Z,99.90
2023-05-01T16:08:19.196Z,99.90
2023-05-01T16:10:47.344Z,97.00
2023-05-01T16:13:16.634Z,97.90
2023-05-01T16:15:44.772Z,97.50
2023-05-01T16:18:19.606Z,96.50
2023-05-01T16:20:47.576Z,97.10
2023-05-01T16:23:16.496Z,99.90
2023-05-01T16:25:44.673Z,99.90
2023-05-01T16:28:13.165Z,99.90
2023-05-01T16:30:44.354Z,99.90
2023-05-01T16:33:18.400Z,99.90
2023-05-01T16:35:49.413Z,99.90
2023-05-01T16:38:17.610Z,99.90
2023-05-01T16:40:47.038Z,99.90
2023-05-01T16:43:15.190Z,99.90
2023-05-01T16:45:44.695Z,99.90
2023-05-01T16:48:13.443Z,99.90
2023-05-01T16:50:42.576Z,99.90
2023-05-01T16:53:10.502Z,99.90
2023-05-01T16:55:38.487Z,99.90
2023-05-01T16:58:06.811Z,99.90
2023-05-01T17:00:34.859Z,99.90
2023-05-01T17:03:04.399Z,99.90
2023-05-01T17:05:32.345Z,99.90
2023-05-01T17:08:00.549Z,99.90
2023-05-01T17:10:28.613Z,99.90
2023-05-01T17:12:56.610Z,99.90
2023-05-01T17:15:44.640Z,99.90
2023-05-01T17:18:13.978Z,99.90
2023-05-01T17:20:41.995Z,99.90
2023-05-01T17:23:10.766Z,99.90
2023-05-01T17:25:38.720Z,99.90
2023-05-01T17:28:06.748Z,99.90
2023-05-01T17:30:34.777Z,99.90
2023-05-01T17:33:02.896Z,99.90
2023-05-01T17:35:32.414Z,99.90
2023-05-01T17:38:00.365Z,99.90
2023-05-01T17:40:28.698Z,99.90
2023-05-01T17:42:56.720Z,99.90
2023-05-01T17:45:24.848Z,99.90
2023-05-01T17:47:53.700Z,99.90
2023-05-01T17:50:28.623Z,99.90
2023-05-01T17:52:57.948Z,99.90
2023-05-01T17:55:27.465Z,99.90
2023-05-01T17:57:55.534Z,99.90
2023-05-01T18:00:24.104Z,99.90
2023-05-01T18:02:52.147Z,99.90
2023-05-01T18:05:20.352Z,99.90
2023-05-01T18:07:48.284Z,99.90
2023-05-01T18:10:17.870Z,99.90
2023-05-01T18:12:47.021Z,99.90
2023-05-01T18:15:27.619Z,99.90
2023-05-01T18:17:55.694Z,99.90
2023-05-01T18:20:23.840Z,99.90
2023-05-01T18:22:52.237Z,99.90
2023-05-01T18:25:21.552Z,99.90
2023-05-01T18:27:49.459Z,99.90
2023-05-01T18:30:17.950Z,99.90
2023-05-01T18:32:48.396Z,99.90
2023-05-01T18:35:17.959Z,99.90
2023-05-01T18:37:46.424Z,99.90
2023-05-01T18:40:14.679Z,99.90
2023-05-01T18:42:44.169Z,99.90
2023-05-01T18:45:12.280Z,99.90
2023-05-01T18:47:40.233Z,99.90
2023-05-01T18:50:09.621Z,99.90
2023-05-01T18:52:37.925Z,99.90
2023-05-01T18:55:06.779Z,99.90
2023-05-01T18:57:35.038Z,99.90
2023-05-01T19:00:05.803Z,99.90
2023-05-01T19:02:33.855Z,99.90
2023-05-01T19:05:01.880Z,99.90
2023-05-01T19:07:30.064Z,99.90
2023-05-01T19:09:58.222Z,99.90
2023-05-01T19:12:26.442Z,99.90
2023-05-01T19:14:54.453Z,99.90
2023-05-01T19:17:23.730Z,99.90
2023-05-01T19:19:51.739Z,99.90
2023-05-01T19:22:19.749Z,99.90
2023-05-01T19:24:47.713Z,99.90
2023-05-01T19:27:15.672Z,99.90
2023-05-01T19:29:43.624Z,99.90
2023-05-01T19:32:12.067Z,99.90
2023-05-01T19:34:41.754Z,99.90
2023-05-01T19:37:09.702Z,99.90
2023-05-01T19:39:37.641Z,99.90
2023-05-01T19:42:05.649Z,99.90
2023-05-01T19:44:33.592Z,99.90
2023-05-01T19:47:01.848Z,99.90
2023-05-01T19:49:29.852Z,99.90
2023-05-01T19:51:59.370Z,99.90
2023-05-01T19:54:27.371Z,99.90
2023-05-01T19:56:56.095Z,99.90
2023-05-01T19:59:24.239Z,99.90
2023-05-01T20:01:52.543Z,99.90
2023-05-01T20:04:22.831Z,99.90
2023-05-01T20:06:50.998Z,99.90
2023-05-01T20:09:20.357Z,99.90
2023-05-01T20:11:48.282Z,99.90
2023-05-01T20:14:16.245Z,99.90
2023-05-01T20:16:44.263Z,99.90
2023-05-01T20:19:12.753Z,99.90
2023-05-01T20:21:40.736Z,99.90
2023-05-01T20:24:10.334Z,99.90
2023-05-01T20:26:39.616Z,99.90
2023-05-01T20:29:09.175Z,99.90
2023-05-01T20:31:37.299Z,99.90
2023-05-01T20:34:05.700Z,99.90
2023-05-01T20:36:33.728Z,99.90
2023-05-01T20:39:01.755Z,99.90
2023-05-01T20:41:29.936Z,99.90
2023-05-01T20:43:59.514Z,99.90
2023-05-01T20:46:27.544Z,99.90
2023-05-01T20:48:55.995Z,99.90
2023-05-01T20:51:23.945Z,99.90
2023-05-01T20:53:51.866Z,99.90
2023-05-01T20:56:19.876Z,99.90
2023-05-01T20:58:47.784Z,99.90
2023-05-01T21:01:17.128Z,99.90
2023-05-01T21:03:45.165Z,99.90
2023-05-01T21:06:14.288Z,99.90
2023-05-01T21:08:42.476Z,99.90
2023-05-01T21:11:10.568Z,99.90
2023-05-01T21:13:38.602Z,99.90
2023-05-01T21:16:10.508Z,99.90
2023-05-01T21:18:40.105Z,99.90
2023-05-01T21:21:08.170Z,99.90
2023-05-01T21:23:36.174Z,99.90
2023-05-01T21:26:04.202Z,99.90
2023-05-01T21:28:32.215Z,99.90
2023-05-01T21:31:00.181Z,99.90
2023-05-01T21:33:28.404Z,99.90
2023-05-01T21:35:57.926Z,99.90
2023-05-01T21:38:25.996Z,99.90
2023-05-01T21:40:53.944Z,99.90
2023-05-01T21:43:21.905Z,99.90
2023-05-01T21:45:49.950Z,99.90
2023-05-01T21:48:20.208Z,99.90
2023-05-01T21:50:50.509Z,99.90
2023-05-01T21:53:19.746Z,99.90
2023-05-01T21:55:47.755Z,99.90
2023-05-01T21:58:16.003Z,99.90
2023-05-01T22:00:43.932Z,99.90
2023-05-01T22:03:12.312Z,99.90
2023-05-01T22:05:41.628Z,99.90
2023-05-01T22:08:09.711Z,99.90
2023-05-01T22:10:40.706Z,99.90
2023-05-01T22:13:08.666Z,99.90
2023-05-01T22:15:36.656Z,99.90
2023-05-01T22:18:04.852Z,99.90
2023-05-01T22:20:32.987Z,99.90
2023-05-01T22:23:00.932Z,99.90
2023-05-01T22:25:28.895Z,99.90
2023-05-01T22:28:00.409Z,99.90
2023-05-01T22:30:28.319Z,99.90
2023-05-01T22:32:56.313Z,99.90
2023-05-01T22:35:24.309Z,99.90
2023-05-01T22:37:52.217Z,99.90
2023-05-01T22:40:20.175Z,99.90
2023-05-01T22:42:48.075Z,99.90
2023-05-01T22:45:17.440Z,99.90
2023-05-01T22:47:45.378Z,99.90
2023-05-01T22:50:13.534Z,99.90
2023-05-01T22:52:41.435Z,99.90
2023-05-01T22:55:09.603Z,99.90
2023-05-01T22:57:37.544Z,99.90
2023-05-01T23:00:06.589Z,99.90
2023-05-01T23:02:36.234Z,99.90
2023-05-01T23:05:04.723Z,99.90
2023-05-01T23:07:32.682Z,99.90
2023-05-01T23:10:02.099Z,99.90
2023-05-01T23:12:30.374Z,99.90
2023-05-01T23:14:58.356Z,99.90
2023-05-01T23:17:33.901Z,99.90
2023-05-01T23:20:03.317Z,99.90
2023-05-01T23:22:31.364Z,99.90
2023-05-01T23:24:59.313Z,99.90
2023-05-01T23:27:27.370Z,99.90
2023-05-01T23:29:58.863Z,99.90
2023-05-01T23:32:29.281Z,99.90
2023-05-01T23:35:01.862Z,99.90
2023-05-01T23:37:31.160Z,99.90
2023-05-01T23:40:00.088Z,99.90
2023-05-01T23:42:28.595Z,99.90
2023-05-01T23:44:56.817Z,99.90
2023-05-01T23:47:24.826Z,99.90
2023-05-01T23:49:52.956Z,99.90
2023-05-01T23:52:21.076Z,99.90
2023-05-01T23:54:50.322Z,99.90
2023-05-01T23:57:18.256Z,99.90
2023-05-01T23:59:46.236Z,99.90
